Agua de Oro, Argentina
Current Conditions -  °F | °C
As of 7:00 PM on Thursday 20 Nov 2014 (Local Time) from SACO Reporting Station
Broken Clouds Broken Clouds  
Wind Chill: 59°   Ceiling: 1800
Heat Index: 59°   Visibility: 5mi
Dew Point: 57°   Wind: 5mph
Humidity: 94%   Direction: 230°SW
Pressure: 30"   Gusts: NA
Location:  31.07°S, 64.3°W
Report Text: SACO 202200Z 23004KT 8000 BKN018 SCT10015/14 Q1016
Loading
Personal Weather Stations






























Interactive Weather Map New forecast layout! Learn more

10-Day Weather Forecast

Advertisements
Track Severe Weather on mobile